Time;durP1;ratioP1;P1;durP2;ratioP2;P2;SDS_P1;SDS_P2;PMS_P1;PMS_P2;Temp;Humidity;BMP_temperature;BMP_pressure;BME280_temperature;BME280_humidity;BME280_pressure;Samples;Min_cycle;Max_cycle;Signal;HPM_P1;HPM_P2
2023/03/23 00:01:50;;;;;;;108.85;52.13;;;5.80;99.90;;;;;;5056297;28;20033;-72
2023/03/23 00:04:16;;;;;;;121.15;58.00;;;5.80;99.90;;;;;;5039641;28;20025;-72
2023/03/23 00:06:44;;;;;;;113.90;57.35;;;5.90;99.90;;;;;;5055908;28;20385;-73
2023/03/23 00:09:12;;;;;;;122.93;58.13;;;5.90;99.90;;;;;;5056238;28;20028;-72
2023/03/23 00:11:41;;;;;;;92.35;46.83;;;5.70;99.90;;;;;;5055739;28;20033;-73
2023/03/23 00:14:12;;;;;;;94.28;50.42;;;5.60;99.90;;;;;;5055577;28;20025;-73
2023/03/23 00:16:40;;;;;;;115.07;56.53;;;5.40;99.90;;;;;;5055675;28;20500;-72
2023/03/23 00:19:15;;;;;;;105.05;51.92;;;5.40;99.90;;;;;;5056119;28;20079;-72
2023/03/23 00:21:42;;;;;;;93.25;48.78;;;5.40;99.90;;;;;;5037779;28;20134;-72
2023/03/23 00:24:17;;;;;;;91.13;47.38;;;5.50;99.90;;;;;;5055474;28;20124;-72
2023/03/23 00:26:45;;;;;;;95.70;47.97;;;5.50;99.90;;;;;;5055615;28;20100;-72
2023/03/23 00:29:21;;;;;;;114.32;55.70;;;5.40;99.90;;;;;;5055738;28;20021;-72
2023/03/23 00:31:51;;;;;;;99.07;49.15;;;5.40;99.90;;;;;;5054495;28;20441;-72
2023/03/23 00:34:24;;;;;;;94.43;47.97;;;5.50;99.90;;;;;;5055518;28;20025;-72
2023/03/23 00:36:57;;;;;;;97.78;49.00;;;5.40;99.90;;;;;;5055526;28;20048;-72
2023/03/23 00:39:27;;;;;;;97.43;47.50;;;5.40;99.90;;;;;;5055281;28;20037;-72
2023/03/23 00:42:00;;;;;;;107.27;53.17;;;5.40;99.90;;;;;;5055476;28;20021;-72
2023/03/23 00:44:31;;;;;;;106.20;53.30;;;5.30;99.90;;;;;;5055552;28;20029;-72
2023/03/23 00:46:58;;;;;;;97.45;50.42;;;5.30;99.90;;;;;;5037338;28;20032;-72
2023/03/23 00:49:25;;;;;;;113.63;55.13;;;5.20;99.90;;;;;;5055027;28;20131;-72
2023/03/23 00:51:57;;;;;;;104.22;50.15;;;5.20;99.90;;;;;;5037206;28;20048;-72
2023/03/23 00:54:25;;;;;;;104.90;51.45;;;5.20;99.90;;;;;;5055015;28;20474;-72
2023/03/23 00:56:51;;;;;;;100.07;50.67;;;5.30;99.90;;;;;;5037237;28;20033;-72
2023/03/23 00:59:18;;;;;;;99.80;48.95;;;5.30;99.90;;;;;;5036912;28;20430;-72
2023/03/23 01:01:45;;;;;;;91.38;46.33;;;5.30;99.90;;;;;;5055033;28;20056;-72
2023/03/23 01:04:12;;;;;;;93.15;48.38;;;5.20;99.90;;;;;;5037058;28;20028;-72
2023/03/23 01:06:40;;;;;;;101.97;49.53;;;5.20;99.90;;;;;;5053453;28;20064;-72
2023/03/23 01:09:14;;;;;;;97.35;47.03;;;5.10;99.90;;;;;;5053494;28;20036;-72
2023/03/23 01:11:41;;;;;;;88.03;43.92;;;5.20;99.90;;;;;;5054806;28;20024;-72
2023/03/23 01:14:08;;;;;;;78.60;41.47;;;5.10;99.90;;;;;;5042220;28;20037;-72
2023/03/23 01:16:34;;;;;;;85.80;41.65;;;5.00;99.90;;;;;;5034689;28;20029;-72
2023/03/23 01:19:00;;;;;;;80.07;42.55;;;4.90;99.90;;;;;;5034950;28;20120;-72
2023/03/23 01:21:26;;;;;;;90.75;42.97;;;4.90;99.90;;;;;;5016780;28;20087;-72
2023/03/23 01:23:52;;;;;;;90.95;47.00;;;4.90;99.90;;;;;;5034601;28;20253;-72
2023/03/23 01:26:24;;;;;;;85.28;41.65;;;4.80;99.90;;;;;;5016317;28;20025;-72
2023/03/23 01:28:51;;;;;;;84.00;42.53;;;4.80;99.90;;;;;;5033381;28;20112;-72
2023/03/23 01:31:21;;;;;;;83.47;43.13;;;4.90;99.90;;;;;;5033359;28;20029;-72
2023/03/23 01:33:50;;;;;;;85.65;44.67;;;4.90;99.90;;;;;;5034535;28;20038;-72
2023/03/23 01:36:20;;;;;;;81.95;39.95;;;5.00;99.90;;;;;;5036462;28;20112;-72
2023/03/23 01:38:48;;;;;;;76.63;40.67;;;4.90;99.90;;;;;;5036474;28;20103;-72
2023/03/23 01:41:15;;;;;;;77.07;39.15;;;4.80;99.90;;;;;;5036416;28;20821;-72
2023/03/23 01:44:16;;;;;;;75.93;40.53;;;4.80;99.90;;;;;;5053096;28;20106;-72
2023/03/23 01:46:54;;;;;;;79.47;40.83;;;4.70;99.90;;;;;;5026872;28;20061;-72
2023/03/23 01:49:36;;;;;;;88.47;44.45;;;4.60;99.90;;;;;;5052802;28;20486;-72
2023/03/23 01:52:05;;;;;;;117.63;52.75;;;4.70;99.90;;;;;;5054224;28;20081;-72
2023/03/23 01:54:32;;;;;;;120.55;57.85;;;4.80;99.90;;;;;;5036106;28;20430;-72
2023/03/23 01:57:04;;;;;;;115.95;55.03;;;4.70;99.90;;;;;;5036276;28;20047;-72
2023/03/23 01:59:31;;;;;;;88.65;46.20;;;4.60;99.90;;;;;;5036014;28;20040;-72
2023/03/23 02:02:16;;;;;;;75.63;37.92;;;4.70;99.90;;;;;;5035808;28;20128;-72
2023/03/23 02:04:44;;;;;;;73.72;38.83;;;4.80;99.90;;;;;;5035606;28;20374;-72
2023/03/23 02:07:13;;;;;;;77.57;39.10;;;4.70;99.90;;;;;;5053933;28;20025;-72
2023/03/23 02:09:40;;;;;;;76.95;37.50;;;4.60;99.90;;;;;;5036342;28;20622;-72
2023/03/23 02:12:06;;;;;;;66.00;35.97;;;4.50;99.90;;;;;;5054920;28;20028;-72
2023/03/23 02:14:34;;;;;;;71.18;35.97;;;4.40;99.90;;;;;;5021988;28;20037;-72
2023/03/23 02:17:27;;;;;;;72.72;38.08;;;4.40;99.90;;;;;;5017067;28;20067;-72
2023/03/23 02:20:06;;;;;;;76.95;39.58;;;4.40;99.90;;;;;;5034846;28;20148;-72
2023/03/23 02:23:03;;;;;;;95.72;46.25;;;4.40;99.90;;;;;;5016759;28;20112;-72
2023/03/23 02:25:59;;;;;;;78.32;37.70;;;4.40;99.90;;;;;;5016741;28;20455;-72
2023/03/23 02:28:36;;;;;;;66.10;32.15;;;4.50;99.90;;;;;;5016826;28;20113;-72
2023/03/23 02:31:38;;;;;;;60.92;31.20;;;4.40;99.90;;;;;;5016982;28;20044;-72
2023/03/23 02:34:30;;;;;;;61.28;32.83;;;4.50;99.90;;;;;;4975365;28;20504;-72
2023/03/23 02:37:08;;;;;;;63.60;32.83;;;4.60;99.90;;;;;;5055618;28;20049;-72
2023/03/23 02:39:41;;;;;;;63.42;31.88;;;4.70;99.90;;;;;;5058458;28;20047;-73
2023/03/23 02:42:10;;;;;;;63.72;33.03;;;4.70;99.90;;;;;;5040632;28;20033;-72
2023/03/23 02:44:40;;;;;;;55.33;29.40;;;4.70;99.90;;;;;;5040364;28;20474;-72
2023/03/23 02:47:10;;;;;;;59.53;30.00;;;4.60;99.90;;;;;;5040560;28;20025;-72
2023/03/23 02:49:39;;;;;;;56.05;29.98;;;4.50;99.90;;;;;;5040328;28;20393;-72
2023/03/23 02:52:15;;;;;;;55.75;29.65;;;4.40;99.90;;;;;;5058323;28;20029;-72
2023/03/23 02:54:44;;;;;;;54.72;29.20;;;4.40;99.90;;;;;;5023906;28;20496;-72
2023/03/23 02:57:10;;;;;;;57.20;29.45;;;4.30;99.90;;;;;;5058412;28;20053;-72
2023/03/23 02:59:41;;;;;;;52.30;28.55;;;4.30;99.90;;;;;;5040264;28;20112;-72
2023/03/23 03:02:16;;;;;;;64.03;31.55;;;4.20;99.90;;;;;;5058289;28;20029;-72
2023/03/23 03:04:50;;;;;;;58.70;30.95;;;4.20;99.90;;;;;;5036615;28;20475;-72
2023/03/23 03:07:27;;;;;;;50.17;27.13;;;4.30;99.90;;;;;;5038443;28;20029;-72
2023/03/23 03:10:14;;;;;;;52.38;27.65;;;4.40;99.90;;;;;;5020198;28;20033;-72
2023/03/23 03:12:50;;;;;;;49.78;27.17;;;4.30;99.90;;;;;;5020096;28;20048;-72
2023/03/23 03:15:26;;;;;;;52.75;28.45;;;4.40;99.90;;;;;;5020117;28;20120;-72
2023/03/23 03:18:08;;;;;;;57.38;26.77;;;4.30;99.90;;;;;;5020138;28;20600;-71
2023/03/23 03:20:40;;;;;;;50.78;25.42;;;4.30;99.90;;;;;;5019861;28;20037;-71
2023/03/23 03:23:09;;;;;;;52.45;27.30;;;4.30;99.90;;;;;;5019888;28;20045;-71
2023/03/23 03:25:37;;;;;;;52.10;26.77;;;4.10;99.90;;;;;;5019838;28;20041;-72
2023/03/23 03:28:03;;;;;;;52.55;27.27;;;4.10;99.90;;;;;;5019916;28;20025;-72
2023/03/23 03:30:44;;;;;;;48.72;26.95;;;4.10;99.90;;;;;;5019735;28;20044;-72
2023/03/23 03:33:12;;;;;;;48.00;26.20;;;4.00;99.90;;;;;;5019959;28;20026;-72
2023/03/23 03:35:41;;;;;;;51.65;25.95;;;4.00;99.90;;;;;;5034621;28;20032;-72
2023/03/23 03:38:09;;;;;;;48.35;25.50;;;4.10;99.90;;;;;;5057501;28;20054;-72
2023/03/23 03:40:35;;;;;;;51.00;26.20;;;4.00;99.90;;;;;;5057449;28;20039;-72
2023/03/23 03:43:02;;;;;;;51.92;26.52;;;4.00;99.90;;;;;;5039503;28;20033;-72
2023/03/23 03:45:28;;;;;;;50.70;26.60;;;3.90;99.90;;;;;;5039178;28;20029;-72
2023/03/23 03:47:55;;;;;;;48.35;27.63;;;4.00;99.90;;;;;;5038712;28;20029;-72
2023/03/23 03:50:21;;;;;;;50.92;26.95;;;3.90;99.90;;;;;;5039261;28;20071;-72
2023/03/23 03:52:48;;;;;;;56.75;30.40;;;4.00;99.90;;;;;;5039334;28;20500;-72
2023/03/23 03:55:14;;;;;;;55.15;29.20;;;4.00;99.90;;;;;;5039404;28;20117;-72
2023/03/23 03:57:43;;;;;;;56.10;29.73;;;4.00;99.90;;;;;;5039163;28;20033;-72
2023/03/23 04:00:32;;;;;;;52.83;28.20;;;3.90;99.90;;;;;;5038998;28;20095;-72
2023/03/23 04:02:59;;;;;;;50.78;27.40;;;3.90;99.90;;;;;;5039084;28;20041;-72
2023/03/23 04:05:44;;;;;;;57.33;28.83;;;3.80;99.90;;;;;;5035938;28;20040;-72
2023/03/23 04:08:11;;;;;;;66.28;30.08;;;3.80;99.90;;;;;;5002923;28;20463;-72
2023/03/23 04:10:37;;;;;;;64.38;30.60;;;3.70;99.90;;;;;;5019127;28;20026;-72
2023/03/23 04:13:06;;;;;;;56.35;28.90;;;3.80;99.90;;;;;;5002726;28;20025;-72
2023/03/23 04:15:52;;;;;;;53.88;27.77;;;3.70;99.90;;;;;;5026170;28;20040;-72
2023/03/23 04:18:20;;;;;;;55.17;26.55;;;3.80;99.90;;;;;;5035517;28;20422;-72
2023/03/23 04:20:49;;;;;;;44.85;25.25;;;3.90;99.90;;;;;;5035482;28;20059;-72
2023/03/23 04:23:19;;;;;;;40.00;23.02;;;3.80;99.90;;;;;;5036658;28;20052;-72
2023/03/23 04:25:47;;;;;;;40.35;22.02;;;3.90;99.90;;;;;;5036796;28;20040;-72
2023/03/23 04:28:16;;;;;;;43.63;23.48;;;3.80;99.90;;;;;;5052039;28;20355;-72
2023/03/23 04:30:55;;;;;;;44.13;23.17;;;3.80;99.90;;;;;;5035543;28;20029;-72
2023/03/23 04:33:26;;;;;;;42.75;23.35;;;3.80;99.90;;;;;;5035191;28;20059;-72
2023/03/23 04:35:54;;;;;;;45.72;23.30;;;3.80;99.90;;;;;;5038592;28;20087;-72
2023/03/23 04:38:41;;;;;;;47.45;24.73;;;3.70;99.90;;;;;;5038459;28;20033;-71
2023/03/23 04:41:14;;;;;;;56.67;29.25;;;3.70;99.90;;;;;;5055086;28;20041;-71
2023/03/23 04:44:05;;;;;;;60.72;27.77;;;3.60;99.90;;;;;;5048035;28;20120;-71
2023/03/23 04:46:38;;;;;;;52.30;24.48;;;3.60;99.90;;;;;;5038131;28;20028;-71
2023/03/23 04:49:09;;;;;;;45.40;23.63;;;3.70;99.90;;;;;;5054923;28;20078;-72
2023/03/23 04:51:39;;;;;;;43.35;23.77;;;3.70;99.90;;;;;;5038197;28;20044;-71
2023/03/23 04:54:27;;;;;;;43.83;22.58;;;3.70;99.90;;;;;;5055439;28;20348;-71
2023/03/23 04:56:55;;;;;;;43.67;22.85;;;3.60;99.90;;;;;;5038099;28;20087;-71
2023/03/23 04:59:27;;;;;;;62.72;25.35;;;3.60;99.90;;;;;;5037930;28;20064;-72
2023/03/23 05:02:08;;;;;;;48.28;25.60;;;3.60;99.90;;;;;;5054524;28;20033;-72
2023/03/23 05:04:34;;;;;;;49.63;24.45;;;3.70;99.90;;;;;;5054232;28;20036;-72
2023/03/23 05:07:14;;;;;;;53.95;23.13;;;3.70;99.90;;;;;;5054553;28;20025;-72
2023/03/23 05:09:47;;;;;;;49.50;24.35;;;3.90;99.90;;;;;;5054260;28;20028;-72
2023/03/23 05:12:14;;;;;;;61.67;27.50;;;4.00;99.90;;;;;;5054459;28;20509;-72
2023/03/23 05:15:06;;;;;;;74.30;29.47;;;4.10;99.90;;;;;;5035472;28;20040;-72
2023/03/23 05:17:34;;;;;;;65.85;27.10;;;4.40;99.90;;;;;;5017613;28;20049;-72
2023/03/23 05:20:08;;;;;;;47.67;23.20;;;4.50;99.90;;;;;;5034347;28;20067;-72
2023/03/23 05:22:44;;;;;;;52.22;24.45;;;4.70;99.90;;;;;;5017628;28;20061;-71
2023/03/23 05:25:12;;;;;;;63.97;26.77;;;5.00;99.90;;;;;;5017617;28;20030;-71
2023/03/23 05:27:52;;;;;;;69.47;28.98;;;5.10;99.90;;;;;;5017703;28;20370;-72
2023/03/23 05:30:30;;;;;;;74.60;30.45;;;5.20;99.90;;;;;;5034049;28;20044;-71
2023/03/23 05:32:57;;;;;;;64.60;28.75;;;5.30;99.90;;;;;;5017639;28;20599;-71
2023/03/23 05:35:50;;;;;;;62.72;25.33;;;5.40;99.90;;;;;;5048695;28;20426;-71
2023/03/23 05:38:19;;;;;;;54.72;26.45;;;5.50;99.90;;;;;;5037306;28;20124;-71
2023/03/23 05:40:46;;;;;;;66.85;30.38;;;5.70;99.90;;;;;;5053784;28;20063;-71
2023/03/23 05:43:18;;;;;;;88.50;36.88;;;5.70;99.90;;;;;;5053743;28;20132;-70
2023/03/23 05:45:56;;;;;;;85.65;32.72;;;5.80;99.90;;;;;;5037239;28;20025;-70
2023/03/23 05:48:22;;;;;;;72.50;34.00;;;6.10;99.90;;;;;;5036951;28;20378;-70
2023/03/23 05:50:48;;;;;;;76.68;39.10;;;6.40;99.90;;;;;;5037127;28;20024;-71
2023/03/23 05:53:15;;;;;;;92.45;38.20;;;6.70;99.90;;;;;;5037147;28;20032;-70
2023/03/23 05:55:41;;;;;;;95.35;47.20;;;6.90;99.90;;;;;;5036894;28;20032;-70
2023/03/23 05:58:30;;;;;;;92.15;46.28;;;7.30;99.90;;;;;;5053060;28;20041;-70
2023/03/23 06:00:56;;;;;;;100.07;51.05;;;7.40;99.90;;;;;;5036874;28;20055;-71
2023/03/23 06:03:27;;;;;;;;;;;7.50;99.90;;;;;;5037170;28;20033;-70
2023/03/23 06:06:12;;;;;;;104.55;50.88;;;7.70;99.90;;;;;;5017196;28;19935;-70
2023/03/23 06:08:50;;;;;;;96.13;45.92;;;8.00;99.90;;;;;;5033340;28;20064;-70
2023/03/23 06:11:18;;;;;;;84.05;43.50;;;8.20;99.90;;;;;;5016509;28;20033;-70
2023/03/23 06:13:58;;;;;;;88.32;40.58;;;8.40;99.90;;;;;;5016840;28;20034;-72
2023/03/23 06:16:25;;;;;;;81.63;44.35;;;8.60;99.90;;;;;;5033322;28;20065;-72
2023/03/23 06:18:56;;;;;;;74.53;42.53;;;8.80;99.90;;;;;;5033427;28;20025;-72
2023/03/23 06:21:30;;;;;;;84.38;42.17;;;9.10;99.90;;;;;;5021158;28;20033;-73
2023/03/23 06:24:19;;;;;;;82.32;42.70;;;9.60;99.90;;;;;;5009821;28;20053;-72
2023/03/23 06:26:46;;;;;;;85.85;42.67;;;10.10;99.90;;;;;;5043253;28;20034;-72
2023/03/23 06:29:18;;;;;;;80.60;38.90;;;10.40;99.90;;;;;;5029774;28;20107;-72
2023/03/23 06:31:54;;;;;;;85.63;41.90;;;10.60;99.90;;;;;;5036196;28;20017;-72
2023/03/23 06:34:20;;;;;;;85.68;43.67;;;10.90;99.90;;;;;;5029961;28;20701;-72
2023/03/23 06:36:46;;;;;;;93.63;43.63;;;11.20;99.90;;;;;;5043262;28;20033;-72
2023/03/23 06:39:17;;;;;;;114.75;47.10;;;11.40;99.90;;;;;;5035508;28;20052;-70
2023/03/23 06:41:53;;;;;;;86.65;42.97;;;11.60;99.90;;;;;;5034429;28;20029;-71
2023/03/23 06:44:19;;;;;;;84.85;41.60;;;11.60;99.90;;;;;;5050680;28;20025;-71
2023/03/23 06:46:45;;;;;;;85.15;42.42;;;11.80;99.90;;;;;;5021898;28;20694;-71
2023/03/23 06:49:23;;;;;;;85.68;41.85;;;11.70;99.90;;;;;;5032584;28;20093;-71
2023/03/23 06:51:56;;;;;;;77.78;38.17;;;12.00;99.90;;;;;;5026476;28;20033;-71
2023/03/23 06:54:24;;;;;;;77.38;39.22;;;12.50;99.90;;;;;;5016062;28;20022;-72
2023/03/23 06:56:51;;;;;;;78.93;39.42;;;13.30;99.90;;;;;;5026065;28;20486;-71
2023/03/23 06:59:18;;;;;;;77.97;38.45;;;13.70;99.90;;;;;;5037769;28;20029;-71
2023/03/23 07:01:44;;;;;;;80.30;39.50;;;13.60;99.90;;;;;;5023677;28;20116;-71
2023/03/23 07:04:10;;;;;;;70.75;38.67;;;13.80;99.90;;;;;;5034757;28;20470;-71
2023/03/23 07:06:52;;;;;;;75.18;39.60;;;14.20;99.90;;;;;;5030705;28;20470;-72
2023/03/23 07:09:18;;;;;;;70.15;38.38;;;14.50;99.90;;;;;;5032176;28;20029;-72
2023/03/23 07:11:45;;;;;;;75.47;39.10;;;14.60;99.90;;;;;;5032293;28;20027;-71
2023/03/23 07:14:21;;;;;;;91.68;40.60;;;14.70;99.90;;;;;;5051797;28;20057;-72
2023/03/23 07:16:48;;;;;;;75.15;38.03;;;15.20;99.90;;;;;;5031722;28;20029;-72
2023/03/23 07:19:14;;;;;;;70.72;36.90;;;15.30;99.90;;;;;;5043312;28;20087;-72
2023/03/23 07:21:42;;;;;;;65.25;37.22;;;15.60;99.90;;;;;;5046750;28;20025;-72
2023/03/23 07:24:14;;;;;;;78.00;37.70;;;16.00;99.90;;;;;;5020091;28;20046;-71
2023/03/23 07:26:56;;;;;;;71.25;35.53;;;16.40;99.90;;;;;;5019817;28;20483;-72
2023/03/23 07:29:23;;;;;;;55.80;32.00;;;16.50;99.90;;;;;;5039280;28;21819;-71
2023/03/23 07:31:57;;;;;;;59.03;29.98;;;16.80;99.90;;;;;;5023958;28;20032;-72
2023/03/23 07:34:25;;;;;;;63.15;30.38;;;16.90;99.90;;;;;;5030015;28;20029;-72
2023/03/23 07:37:02;;;;;;;60.03;28.90;;;16.80;99.90;;;;;;5024532;28;20043;-71
2023/03/23 07:39:31;;;;;;;53.00;27.20;;;17.40;99.90;;;;;;5038741;28;20041;-71
2023/03/23 07:41:59;;;;;;;45.80;25.48;;;17.50;99.90;;;;;;5038849;28;20037;-72
2023/03/23 07:44:40;;;;;;;55.42;25.65;;;17.80;99.90;;;;;;5038461;28;20041;-72
2023/03/23 07:47:08;;;;;;;48.17;23.60;;;18.10;99.90;;;;;;5038944;28;20033;-72
2023/03/23 07:49:35;;;;;;;40.03;22.95;;;18.20;99.90;;;;;;5035105;28;20029;-72
2023/03/23 07:52:31;;;;;;;45.33;26.33;;;18.20;99.90;;;;;;5015473;28;20041;-71
2023/03/23 07:54:59;;;;;;;41.10;24.42;;;18.50;99.90;;;;;;5045103;28;20386;-71
2023/03/23 07:57:48;;;;;;;43.83;26.02;;;18.60;99.90;;;;;;5015101;28;20045;-72
2023/03/23 08:00:23;;;;;;;46.13;24.05;;;18.90;99.90;;;;;;5036586;28;20041;-72
2023/03/23 08:02:53;;;;;;;48.78;23.48;;;18.90;99.90;;;;;;5032105;28;20051;-72
2023/03/23 08:05:39;;;;;;;51.85;25.27;;;19.00;99.90;;;;;;4990193;28;20421;-72
2023/03/23 08:08:25;;;;;;;39.25;22.00;;;19.40;99.90;;;;;;5036432;28;20069;-72
2023/03/23 08:11:10;;;;;;;52.20;21.52;;;19.60;99.90;;;;;;5036934;28;20052;-72
2023/03/23 08:14:06;;;;;;;42.35;21.15;;;20.10;99.90;;;;;;5027146;28;20075;-72
2023/03/23 08:16:44;;;;;;;36.58;22.70;;;20.10;99.90;;;;;;5025219;28;20021;-72
2023/03/23 08:19:20;;;;;;;44.00;23.42;;;20.00;99.90;;;;;;5045242;28;20029;-72
2023/03/23 08:22:19;;;;;;;39.55;22.85;;;20.10;99.90;;;;;;5011430;28;20518;-72
2023/03/23 08:25:21;;;;;;;42.35;22.27;;;20.60;99.90;;;;;;5040629;28;20045;-73
2023/03/23 08:28:16;;;;;;;45.20;22.17;;;21.10;99.90;;;;;;5034107;28;20076;-73
2023/03/23 08:31:09;;;;;;;40.50;23.33;;;21.50;99.90;;;;;;5055887;28;20206;-73
2023/03/23 08:33:51;;;;;;;39.97;22.73;;;21.50;99.90;;;;;;5036400;28;20116;-73
2023/03/23 08:36:29;;;;;;;49.60;23.48;;;21.80;99.90;;;;;;5033807;28;20076;-73
2023/03/23 08:39:14;;;;;;;39.17;22.35;;;21.90;99.90;;;;;;5034373;28;20029;-73
2023/03/23 08:42:18;;;;;;;37.88;21.80;;;21.70;99.90;;;;;;5017528;28;20038;-73
2023/03/23 08:45:07;;;;;;;38.47;22.33;;;22.10;99.90;;;;;;5034022;28;20030;-73
2023/03/23 08:47:59;;;;;;;38.13;20.92;;;22.30;99.90;;;;;;5027291;28;20030;-72
2023/03/23 08:50:30;;;;;;;40.08;21.38;;;22.40;99.90;;;;;;5035348;28;20442;-72
2023/03/23 08:53:15;;;;;;;33.65;18.95;;;22.70;99.90;;;;;;5035638;28;20075;-73
2023/03/23 08:55:49;;;;;;;29.08;17.75;;;22.60;99.90;;;;;;5035768;28;20099;-72
2023/03/23 08:58:35;;;;;;;40.10;20.77;;;22.60;99.90;;;;;;5035180;28;20040;-73
2023/03/23 09:01:10;;;;;;;47.97;19.83;;;23.00;99.90;;;;;;5017650;28;20061;-73
2023/03/23 09:03:54;;;;;;;36.88;16.42;;;23.00;99.90;;;;;;5037061;28;20403;-73
2023/03/23 09:06:47;;;;;;;31.25;14.00;;;23.40;99.90;;;;;;5037172;28;20021;-73
2023/03/23 09:09:13;;;;;;;18.98;10.20;;;23.50;99.90;;;;;;5054811;28;20036;-73
2023/03/23 09:11:40;;;;;;;17.88;6.95;;;23.50;99.90;;;;;;5055649;28;20025;-73
2023/03/23 09:14:08;;;;;;;17.27;7.50;;;24.00;99.90;;;;;;5054908;28;20082;-73
2023/03/23 09:16:34;;;;;;;26.25;10.27;;;24.40;99.90;;;;;;5054954;28;20495;-73
2023/03/23 09:19:01;;;;;;;20.90;9.50;;;24.80;99.90;;;;;;5055059;28;20520;-73
2023/03/23 09:21:28;;;;;;;15.13;6.80;;;24.80;99.90;;;;;;5054832;28;20025;-73
2023/03/23 09:23:58;;;;;;;17.42;6.38;;;24.80;99.90;;;;;;5054817;28;20041;-73
2023/03/23 09:26:26;;;;;;;18.23;9.45;;;24.90;99.90;;;;;;5054926;28;20050;-73
2023/03/23 09:28:52;;;;;;;27.70;10.73;;;25.00;99.90;;;;;;5054613;28;20032;-73
2023/03/23 09:31:22;;;;;;;22.05;9.82;;;24.80;99.90;;;;;;5054911;28;20035;-73
2023/03/23 09:33:51;;;;;;;22.20;9.13;;;24.80;99.90;;;;;;5054504;28;20163;-73
2023/03/23 09:36:21;;;;;;;15.52;7.10;;;25.00;99.90;;;;;;5034722;28;20548;-73
2023/03/23 09:38:49;;;;;;;16.25;5.95;;;25.20;99.90;;;;;;5040261;28;20060;-73
2023/03/23 09:41:40;;;;;;;19.73;7.22;;;25.50;99.90;;;;;;5054647;28;20120;-73
2023/03/23 09:44:28;;;;;;;18.15;6.72;;;25.60;99.90;;;;;;5040198;28;20053;-73
2023/03/23 09:47:21;;;;;;;16.60;6.97;;;25.80;99.90;;;;;;5044504;28;20091;-73
2023/03/23 09:50:26;;;;;;;19.23;6.13;;;25.10;99.90;;;;;;5049786;28;20021;-73
2023/03/23 09:52:58;;;;;;;11.68;4.28;;;25.40;99.90;;;;;;4951733;28;20107;-73
2023/03/23 09:55:25;;;;;;;9.82;4.13;;;25.60;99.90;;;;;;4942161;29;20039;-73
2023/03/23 09:58:32;;;;;;;9.63;4.15;;;26.00;99.90;;;;;;4944615;29;20039;-73
2023/03/23 10:01:37;;;;;;;6.43;3.70;;;26.20;99.90;;;;;;4948097;29;20051;-73
2023/03/23 10:04:19;;;;;;;9.00;2.72;;;26.70;99.90;;;;;;4957434;28;20038;-73
2023/03/23 10:06:47;;;;;;;7.43;3.28;;;26.70;99.90;;;;;;4962121;28;20042;-73
2023/03/23 10:09:18;;;;;;;14.57;4.35;;;26.70;99.90;;;;;;4946619;28;20043;-73
2023/03/23 10:12:26;;;;;;;6.95;2.45;;;26.80;99.90;;;;;;4954415;29;20031;-73
2023/03/23 10:15:11;;;;;;;12.57;3.05;;;26.70;99.90;;;;;;4954073;28;20035;-74
2023/03/23 10:18:01;;;;;;;12.40;3.22;;;26.70;99.90;;;;;;4954255;29;20031;-73
2023/03/23 10:20:45;;;;;;;9.67;2.80;;;26.50;99.90;;;;;;4953636;28;20046;-74
2023/03/23 10:23:32;;;;;;;8.98;3.10;;;26.80;99.90;;;;;;4950262;29;20810;-73
2023/03/23 10:26:20;;;;;;;19.90;3.25;;;26.80;99.90;;;;;;4967900;28;20044;-73
2023/03/23 10:28:56;;;;;;;4.95;2.45;;;26.90;99.90;;;;;;5047683;28;20033;-74
2023/03/23 10:31:42;;;;;;;6.40;2.53;;;26.70;99.90;;;;;;5042742;28;20462;-73
2023/03/23 10:34:15;;;;;;;10.00;3.30;;;27.20;99.90;;;;;;5047320;28;20028;-73
2023/03/23 10:36:53;;;;;;;7.70;2.88;;;25.80;99.90;;;;;;5033521;28;20033;-73
2023/03/23 10:39:22;;;;;;;10.35;4.05;;;26.60;99.90;;;;;;5042025;28;20025;-73
2023/03/23 10:41:48;;;;;;;11.85;4.30;;;26.70;99.90;;;;;;5045017;28;20021;-73
2023/03/23 10:44:21;;;;;;;7.10;2.70;;;26.80;99.90;;;;;;5050854;28;20028;-74
2023/03/23 10:47:00;;;;;;;7.18;3.17;;;26.70;99.90;;;;;;5053294;28;20032;-74
2023/03/23 10:49:50;;;;;;;14.02;3.92;;;26.80;99.90;;;;;;5037775;28;20025;-74
2023/03/23 10:52:37;;;;;;;14.40;4.40;;;26.20;99.90;;;;;;5048267;28;20037;-74
2023/03/23 10:55:14;;;;;;;7.65;3.30;;;25.90;99.90;;;;;;5053929;28;20040;-75
2023/03/23 10:57:44;;;;;;;8.65;4.03;;;26.50;99.90;;;;;;5056121;28;20037;-74
2023/03/23 11:00:27;;;;;;;11.43;4.10;;;24.80;99.90;;;;;;5058455;28;20126;-74
2023/03/23 11:03:22;;;;;;;9.05;4.50;;;25.30;99.90;;;;;;5055905;28;20040;-74
2023/03/23 11:05:57;;;;;;;13.77;4.28;;;26.30;99.90;;;;;;5050193;28;20425;-75
2023/03/23 11:08:30;;;;;;;14.30;5.28;;;26.10;99.90;;;;;;5039499;28;20025;-74
2023/03/23 11:11:07;;;;;;;12.65;4.72;;;25.70;99.90;;;;;;5056717;28;20021;-74
2023/03/23 11:13:33;;;;;;;14.80;4.43;;;25.30;99.90;;;;;;5052481;28;20021;-74
2023/03/23 11:16:00;;;;;;;13.63;4.70;;;25.30;99.90;;;;;;5043848;28;20422;-74
2023/03/23 11:18:53;;;;;;;34.17;7.07;;;25.70;99.90;;;;;;5056537;28;20029;-75
2023/03/23 11:21:21;;;;;;;9.85;4.45;;;26.20;99.90;;;;;;5054590;28;20444;-74
2023/03/23 11:23:53;;;;;;;17.15;5.35;;;26.00;99.90;;;;;;5057630;28;20096;-74
2023/03/23 11:26:30;;;;;;;8.63;3.85;;;26.20;99.90;;;;;;5056980;28;20029;-75
2023/03/23 11:28:57;;;;;;;9.77;4.30;;;26.50;99.90;;;;;;5057682;28;20029;-74
2023/03/23 11:31:32;;;;;;;9.15;4.78;;;26.50;99.90;;;;;;5057302;28;20055;-74
2023/03/23 11:34:03;;;;;;;10.77;4.45;;;26.90;99.90;;;;;;5057409;28;20029;-75
2023/03/23 11:36:41;;;;;;;9.80;4.47;;;27.50;99.90;;;;;;5057668;28;20029;-75
2023/03/23 11:39:24;;;;;;;15.13;4.22;;;27.80;99.90;;;;;;5054878;28;20509;-74
2023/03/23 11:41:50;;;;;;;10.38;4.30;;;27.80;99.90;;;;;;5057482;28;20095;-74
2023/03/23 11:44:17;;;;;;;9.40;4.45;;;27.90;99.90;;;;;;5057361;28;20117;-74
2023/03/23 11:46:53;;;;;;;5.18;3.63;;;27.80;99.90;;;;;;5057445;28;20146;-75
2023/03/23 11:49:58;;;;;;;12.18;5.05;;;27.70;99.90;;;;;;5057328;28;20029;-74
2023/03/23 11:52:42;;;;;;;8.98;3.85;;;27.70;99.90;;;;;;5047457;28;20033;-74
2023/03/23 11:55:37;;;;;;;15.93;5.65;;;28.00;99.90;;;;;;5057453;28;20033;-75
2023/03/23 11:58:14;;;;;;;10.68;4.40;;;28.00;99.90;;;;;;5055106;28;20423;-75
2023/03/23 12:01:16;;;;;;;7.07;4.05;;;28.10;99.90;;;;;;5057460;28;20032;-75
2023/03/23 12:03:57;;;;;;;20.40;5.43;;;28.60;99.90;;;;;;5002367;28;20070;-74
2023/03/23 12:06:45;;;;;;;11.93;3.95;;;28.40;99.90;;;;;;5057218;28;20516;-75
2023/03/23 12:09:39;;;;;;;11.77;4.47;;;28.20;99.90;;;;;;5054265;28;20025;-75
2023/03/23 12:12:30;;;;;;;10.27;3.88;;;27.90;99.90;;;;;;5032958;28;20385;-75
2023/03/23 12:14:56;;;;;;;9.10;3.25;;;26.90;99.90;;;;;;5051319;28;20032;-75
2023/03/23 12:17:28;;;;;;;8.07;3.10;;;26.50;99.90;;;;;;5055004;28;20025;-75
2023/03/23 12:20:23;;;;;;;16.13;6.00;;;27.10;99.90;;;;;;5054373;28;20031;-75
2023/03/23 12:23:18;;;;;;;15.93;5.18;;;27.70;99.90;;;;;;5055434;28;20666;-75
2023/03/23 12:26:23;;;;;;;11.32;4.25;;;28.10;99.90;;;;;;5055697;28;20044;-75
2023/03/23 12:29:10;;;;;;;9.27;3.40;;;28.30;99.90;;;;;;5055381;28;20037;-75
2023/03/23 12:32:00;;;;;;;7.97;3.08;;;28.10;99.90;;;;;;5055778;28;20057;-75
2023/03/23 12:35:00;;;;;;;5.03;2.83;;;28.20;99.90;;;;;;5055850;28;20043;-75
2023/03/23 12:37:58;;;;;;;9.27;3.80;;;28.30;99.90;;;;;;5034734;28;20032;-75
2023/03/23 12:40:40;;;;;;;19.88;5.57;;;28.40;99.90;;;;;;5046556;28;20082;-75
2023/03/23 12:43:24;;;;;;;12.52;4.30;;;28.50;99.90;;;;;;5043205;28;20064;-74
2023/03/23 12:46:42;;;;;;;9.15;3.75;;;28.50;99.90;;;;;;5033072;28;20067;-75
2023/03/23 12:49:43;;;;;;;15.32;4.47;;;27.90;99.90;;;;;;4934920;29;20042;-74
2023/03/23 12:52:39;;;;;;;19.60;5.55;;;27.60;99.90;;;;;;4934972;29;20483;-74
2023/03/23 12:55:21;;;;;;;17.90;6.13;;;27.80;99.90;;;;;;4935512;29;20048;-74
2023/03/23 12:57:55;;;;;;;16.95;5.32;;;27.50;99.90;;;;;;4934936;29;20035;-75
2023/03/23 13:00:26;;;;;;;15.32;5.00;;;27.20;99.90;;;;;;4935614;29;20063;-75
2023/03/23 13:03:22;;;;;;;11.30;4.22;;;26.80;99.90;;;;;;4934164;29;20035;-75
2023/03/23 13:06:08;;;;;;;17.02;4.35;;;27.00;99.90;;;;;;4930030;29;20051;-76
2023/03/23 13:08:42;;;;;;;8.85;3.70;;;27.10;99.90;;;;;;4934564;29;20035;-76
2023/03/23 13:11:36;;;;;;;12.38;4.93;;;27.20;99.90;;;;;;4935338;29;20103;-76
2023/03/23 13:14:02;;;;;;;11.23;4.35;;;27.20;99.90;;;;;;4931592;29;20044;-77
2023/03/23 13:16:49;;;;;;;10.35;4.30;;;26.80;99.90;;;;;;4929561;29;20386;-77
2023/03/23 13:19:53;;;;;;;9.80;4.10;;;26.70;99.90;;;;;;4955926;28;20159;-77
2023/03/23 13:22:37;;;;;;;16.25;5.18;;;26.70;99.90;;;;;;5044765;28;20035;-78